Low Land 20 — WDG8153 — position and weather

sailwx.info

Track history (hours):
 
Tides and Currents Weather Stations Pressure Air Temp Water Temp Dewpoint Dewpoint Depression Visibility Wind Speed Wind Dir Waves Ship Positions

Low Land 20

Owner: LOW LAND CONSTRUCTION CO. INC., THIBODAUX, LA. More information available from US FCC via Universal Licensing System and Coast Guard Vessel Documentation Center.

Last reported at 2018-Apr-29 12:43 UTC. Time now 2018-May-22 10:16 UTC.
Position N 29°36' W 090°40'.
Warning: this ship's position is 22 days out of date.

; draft 5 m.

Type: Other ship. MMSI: 367574540.

Date/timePositionNaut miles runAvg speedWind from/ knotsBaromVisibWave heightAir tempDewpointWater temp
2018-Apr-29 12:43N 29°36' W 090°40'0 0.0
2018-Apr-29 12:31N 29°36' W 090°40'0 0.0
2018-Apr-29 11:59N 29°36' W 090°40'0 0.0
2018-Apr-29 11:31N 29°36' W 090°40'0 0.0
2018-Apr-29 11:01N 29°36' W 090°40'0 0.0
2018-Apr-29 10:30N 29°36' W 090°40'0 0.0
2018-Apr-29 10:01N 29°36' W 090°40'0 0.0
2018-Apr-29 09:31N 29°36' W 090°40'0 0.0
2018-Apr-29 09:00N 29°36' W 090°40'0 0.0
2018-Apr-29 08:31N 29°36' W 090°40'0 0.0
2018-Apr-29 07:59N 29°36' W 090°40'0 0.0
2018-Apr-29 07:29N 29°36' W 090°40'0 0.0
2018-Apr-29 06:59N 29°36' W 090°40'0 0.0
2018-Apr-29 06:31N 29°36' W 090°40'0 0.0
2018-Apr-29 06:01N 29°36' W 090°40'0 0.0
2018-Apr-29 05:30N 29°36' W 090°40'0 0.0
2018-Apr-29 05:00N 29°36' W 090°40'0 0.0
2018-Apr-29 04:30N 29°36' W 090°40'0 0.0
2018-Apr-29 04:00N 29°36' W 090°40'0 0.4
2018-Apr-29 03:31N 29°36' W 090°40'0 0.1
2018-Apr-29 02:59N 29°36' W 090°40'0 0.0
2018-Apr-29 02:29N 29°36' W 090°40'0 0.0
2018-Apr-29 02:00N 29°36' W 090°40'0 0.0
2018-Apr-29 01:31N 29°36' W 090°40'2 3.5
2018-Apr-29 01:01N 29°35' W 090°38'2 4.2
2018-Apr-29 00:31N 29°35' W 090°36'2 4.5
2018-Apr-29 00:00N 29°34' W 090°33'2 4.6
2018-Apr-28 23:30N 29°34' W 090°31'5 0.1
2018-Apr-26 22:01N 29°35' W 090°36'3 6.1
2018-Apr-26 21:30N 29°36' W 090°39'0 0.5
2018-Apr-26 21:00N 29°36' W 090°40'0 0.0
2018-Apr-26 20:30N 29°36' W 090°40'0 0.0
2018-Apr-26 19:57N 29°36' W 090°40'0 0.6
2018-Apr-26 19:31N 29°36' W 090°40'0 0.4
2018-Apr-26 18:54N 29°36' W 090°40'0 0.1
2018-Apr-26 18:30N 29°36' W 090°40'2 4.8
2018-Apr-26 18:00N 29°37' W 090°42'3 5.6
2018-Apr-26 17:30N 29°34' W 090°43'0 0.2
2018-Apr-26 16:59N 29°34' W 090°43'2 4.6
2018-Apr-26 16:30N 29°32' W 090°42'3 5.1
2018-Apr-26 16:01N 29°29' W 090°43'3 5.0
2018-Apr-26 15:29N 29°27' W 090°43'2 5.0
2018-Apr-26 15:00N 29°24' W 090°44'4 0.2
2018-Apr-25 17:29N 29°28' W 090°43'3 7.0
2018-Apr-25 17:00N 29°31' W 090°42'3 5.6
2018-Apr-25 16:29N 29°34' W 090°43'2 3.3
2018-Apr-25 16:00N 29°36' W 090°43'2 3.4
2018-Apr-25 15:31N 29°36' W 090°41'1 1.8
2018-Apr-25 15:01N 29°36' W 090°40'0 0.0
2018-Apr-25 14:31N 29°36' W 090°40'0 0.0
2018-Apr-25 14:01N 29°36' W 090°40'0 0.5
2018-Apr-25 13:30N 29°36' W 090°40'0 0.5
2018-Apr-25 13:01N 29°36' W 090°40'0 0.0
2018-Apr-25 12:28N 29°36' W 090°40'0 0.0
2018-Apr-25 11:56N 29°36' W 090°40'0 0.0
2018-Apr-25 11:27N 29°36' W 090°40'0 0.0
2018-Apr-25 10:59N 29°36' W 090°40'0 0.0
2018-Apr-25 10:28N 29°36' W 090°40'0 0.0
2018-Apr-25 09:56N 29°36' W 090°40'0 0.1
2018-Apr-25 09:31N 29°36' W 090°40'2 3.8
2018-Apr-25 08:59N 29°37' W 090°42'2 4.7
2018-Apr-25 08:30N 29°35' W 090°43'1 1.2
2018-Apr-25 08:01N 29°34' W 090°43'1 1.6
2018-Apr-25 07:31N 29°34' W 090°44'0 0.0
2018-Apr-25 07:00N 29°34' W 090°44'0 0.0
2018-Apr-25 06:31N 29°34' W 090°44'0 0.0
2018-Apr-25 06:01N 29°34' W 090°44'0 0.0
2018-Apr-25 05:30N 29°34' W 090°44'0 0.0
2018-Apr-25 05:00N 29°34' W 090°44'0 0.0
2018-Apr-25 04:31N 29°34' W 090°44'0 0.0
2018-Apr-25 04:01N 29°34' W 090°44'0 0.0
2018-Apr-25 03:31N 29°34' W 090°44'0 0.0
2018-Apr-25 03:00N 29°34' W 090°44'0 0.0
2018-Apr-25 02:30N 29°34' W 090°44'0 0.0
2018-Apr-25 02:01N 29°34' W 090°44'0 0.0
2018-Apr-25 01:30N 29°34' W 090°44'0 0.0
2018-Apr-25 01:00N 29°34' W 090°44'0 0.0
2018-Apr-25 00:31N 29°34' W 090°44'0 0.0
2018-Apr-25 00:01N 29°34' W 090°44'0 0.0
2018-Apr-24 23:31N 29°34' W 090°44'0 0.0
2018-Apr-24 23:00N 29°34' W 090°44'0 0.0
2018-Apr-24 22:30N 29°34' W 090°44'0 0.1
2018-Apr-24 22:01N 29°34' W 090°44'0 0.4
2018-Apr-24 21:31N 29°34' W 090°43'1 1.9
2018-Apr-24 21:00N 29°35' W 090°43'1 1.9
2018-Apr-24 20:31N 29°36' W 090°43'1 2.7
2018-Apr-24 20:01N 29°37' W 090°42'1 2.2
2018-Apr-24 19:30N 29°36' W 090°40'1 1.2
2018-Apr-24 19:01N 29°36' W 090°40'0 0.0
2018-Apr-24 18:29N 29°36' W 090°40'0 0.0
2018-Apr-24 17:53N 29°36' W 090°40'0 0.0
2018-Apr-24 17:30N 29°36' W 090°40'0 0.0
2018-Apr-24 16:58N 29°36' W 090°40'0 0.0
2018-Apr-24 16:31N 29°36' W 090°40'0 0.0
2018-Apr-24 15:59N 29°36' W 090°40'0 0.1
2018-Apr-24 15:31N 29°36' W 090°40'0 0.0
2018-Apr-24 15:00N 29°36' W 090°40'0 0.0
2018-Apr-24 14:29N 29°36' W 090°40'0 0.0
2018-Apr-24 14:00N 29°36' W 090°40'0 0.0
2018-Apr-24 13:31N 29°36' W 090°40'0 0.0
2018-Apr-24 13:01N 29°36' W 090°40'0 0.0
2018-Apr-24 12:30N 29°36' W 090°40'0 0.0
2018-Apr-24 12:01N 29°36' W 090°40'0 0.0
2018-Apr-24 11:31N 29°36' W 090°40'0 0.0
2018-Apr-24 11:00N 29°36' W 090°40'0 0.0
2018-Apr-24 10:30N 29°36' W 090°40'0 0.4
2018-Apr-24 10:01N 29°36' W 090°40'0 0.6
2018-Apr-24 09:30N 29°36' W 090°40'0 0.0
2018-Apr-24 09:00N 29°36' W 090°40'0 0.0
2018-Apr-24 08:31N 29°36' W 090°40'0 0.0
2018-Apr-24 07:59N 29°36' W 090°40'0 0.0
2018-Apr-24 07:30N 29°36' W 090°40'0 0.0
2018-Apr-24 07:01N 29°36' W 090°40'0 0.0
2018-Apr-24 06:30N 29°36' W 090°40'0 0.0
2018-Apr-24 05:59N 29°36' W 090°40'0 0.0
2018-Apr-24 05:29N 29°36' W 090°40'0 0.0
2018-Apr-24 05:01N 29°36' W 090°40'0 0.0
2018-Apr-24 04:31N 29°36' W 090°40'0 0.0
2018-Apr-24 04:00N 29°36' W 090°40'0 0.0
2018-Apr-24 03:30N 29°36' W 090°40'0 0.0
2018-Apr-24 02:59N 29°36' W 090°40'0 0.0
2018-Apr-24 02:31N 29°36' W 090°40'0 0.0
2018-Apr-24 02:00N 29°36' W 090°40'0 0.0
2018-Apr-24 01:27N 29°36' W 090°40'0 0.0
2018-Apr-24 00:59N 29°36' W 090°40'0 0.0
2018-Apr-24 00:30N 29°36' W 090°40'0 0.0
2018-Apr-24 00:00N 29°36' W 090°40'0 0.0
2018-Apr-23 23:31N 29°36' W 090°40'0 0.0
2018-Apr-23 23:00N 29°36' W 090°40'0 0.0
2018-Apr-23 22:30N 29°36' W 090°40'0 0.0
2018-Apr-23 21:58N 29°36' W 090°40'0 0.0
2018-Apr-23 21:24N 29°36' W 090°40'0 0.0
2018-Apr-23 21:00N 29°36' W 090°40'0 0.0
2018-Apr-23 20:30N 29°36' W 090°40'0 0.0
2018-Apr-23 20:00N 29°36' W 090°40'0 0.0
2018-Apr-23 19:28N 29°36' W 090°40'0 0.0
2018-Apr-23 18:58N 29°36' W 090°40'0 0.0
2018-Apr-23 18:27N 29°36' W 090°40'0 0.0
2018-Apr-23 18:01N 29°36' W 090°40'0 0.0
2018-Apr-23 17:26N 29°36' W 090°40'0 0.0
2018-Apr-23 16:51N 29°36' W 090°40'0 0.0
2018-Apr-23 16:28N 29°36' W 090°40'0 0.0
2018-Apr-23 15:56N 29°36' W 090°40'0 0.0
2018-Apr-23 15:30N 29°36' W 090°40'0 0.0
2018-Apr-23 15:00N 29°36' W 090°40'0 0.0
2018-Apr-23 14:01N 29°36' W 090°40'0 0.0
2018-Apr-23 13:47N 29°36' W 090°40'0 0.0
2018-Apr-23 13:20N 29°36' W 090°40'0 0.0
2018-Apr-23 12:55N 29°36' W 090°40'0 0.0
2018-Apr-23 12:31N 29°36' W 090°40'0 0.0
2018-Apr-23 12:00N 29°36' W 090°40'0 0.0
2018-Apr-23 11:30N 29°36' W 090°40'0 0.0
2018-Apr-23 11:00N 29°36' W 090°40'0 0.0
2018-Apr-23 10:31N 29°36' W 090°40'0 0.0
2018-Apr-23 10:00N 29°36' W 090°40'0 0.0
2018-Apr-23 09:30N 29°36' W 090°40'0 0.0
2018-Apr-23 09:01N 29°36' W 090°40'0 0.0
2018-Apr-23 08:30N 29°36' W 090°40'0 0.0
2018-Apr-23 08:00N 29°36' W 090°40'0 0.0
2018-Apr-23 07:30N 29°36' W 090°40'0 0.0
2018-Apr-23 07:01N 29°36' W 090°40'0 0.0
2018-Apr-23 06:29N 29°36' W 090°40'0 0.0
2018-Apr-23 06:00N 29°36' W 090°40'0 0.0
2018-Apr-23 05:30N 29°36' W 090°40'0 0.0
2018-Apr-23 05:00N 29°36' W 090°40'0 0.0
2018-Apr-23 04:31N 29°36' W 090°40'0 0.0
2018-Apr-23 04:01N 29°36' W 090°40'0 0.0
2018-Apr-23 03:30N 29°36' W 090°40'0 0.0
2018-Apr-23 03:00N 29°36' W 090°40'0 0.0
2018-Apr-23 02:29N 29°36' W 090°40'0 0.0
2018-Apr-23 02:00N 29°36' W 090°40'0 0.0
2018-Apr-23 01:31N 29°36' W 090°40'0 0.0
2018-Apr-23 01:00N 29°36' W 090°40'0 0.0
2018-Apr-23 00:28N 29°36' W 090°40'0 0.0
2018-Apr-23 00:00N 29°36' W 090°40'0 0.0
2018-Apr-22 23:30N 29°36' W 090°40'0 0.0
2018-Apr-22 23:01N 29°36' W 090°40'0 0.0
2018-Apr-22 22:31N 29°36' W 090°40'0 0.0
2018-Apr-22 22:01N 29°36' W 090°40'0 0.0
2018-Apr-22 21:30N 29°36' W 090°40'0 0.0
2018-Apr-22 21:00N 29°36' W 090°40'0 0.0
2018-Apr-22 20:31N 29°36' W 090°40'0 0.0
2018-Apr-22 20:00N 29°36' W 090°40'0 0.0
2018-Apr-22 19:30N 29°36' W 090°40'0 0.0
2018-Apr-22 19:00N 29°36' W 090°40'0 0.0
2018-Apr-22 18:31N 29°36' W 090°40'0 0.0
2018-Apr-22 18:00N 29°36' W 090°40'0 0.0
2018-Apr-22 17:30N 29°36' W 090°40'0 0.0
2018-Apr-22 17:00N 29°36' W 090°40'0 0.0
2018-Apr-22 16:30N 29°36' W 090°40'0 0.0
2018-Apr-22 16:01N 29°36' W 090°40'0 0.0
2018-Apr-22 15:30N 29°36' W 090°40'0 0.0
2018-Apr-22 15:00N 29°36' W 090°40'0 0.0
2018-Apr-22 14:30N 29°36' W 090°40'0 0.0
2018-Apr-22 13:59N 29°36' W 090°40'0 0.0
2018-Apr-22 13:31N 29°36' W 090°40'0 0.0
2018-Apr-22 13:00N 29°36' W 090°40'0 0.0
2018-Apr-22 12:30N 29°36' W 090°40'0 0.0
2018-Apr-22 12:00N 29°36' W 090°40'0 0.0
2018-Apr-22 11:30N 29°36' W 090°40'0 0.0
2018-Apr-22 11:01N 29°36' W 090°40'0 0.0
2018-Apr-22 10:29N 29°36' W 090°40'0 0.0
2018-Apr-22 10:01N 29°36' W 090°40'0 0.0
2018-Apr-22 09:30N 29°36' W 090°40'0 0.0
2018-Apr-22 09:00N 29°36' W 090°40'0 0.0
2018-Apr-22 08:31N 29°36' W 090°40'0 0.0
2018-Apr-22 08:00N 29°36' W 090°40'0 0.0
2018-Apr-22 07:30N 29°36' W 090°40'0 0.0
2018-Apr-22 07:01N 29°36' W 090°40'0 0.0
2018-Apr-22 06:30N 29°36' W 090°40'0 0.0
2018-Apr-22 06:00N 29°36' W 090°40'0 0.0
2018-Apr-22 05:30N 29°36' W 090°40'0 0.0
2018-Apr-22 05:00N 29°36' W 090°40'0 0.4
2018-Apr-22 04:27N 29°36' W 090°40'0 0.0
2018-Apr-22 04:00N 29°36' W 090°40'0 0.0
2018-Apr-22 03:30N 29°36' W 090°40'0 0.0
2018-Apr-22 03:00N 29°36' W 090°40'0 0.0
2018-Apr-22 02:30N 29°36' W 090°40'0 0.0
2018-Apr-22 02:00N 29°36' W 090°40'1 2.1
2018-Apr-22 01:30N 29°35' W 090°39'3 5.2
2018-Apr-22 01:00N 29°35' W 090°36'3 5.1
2018-Apr-22 00:30N 29°34' W 090°33'3 5.8
2018-Apr-22 00:00N 29°34' W 090°30'  
Track history (hours):
 
Tides and Currents Weather Stations Pressure Air Temp Water Temp Dewpoint Dewpoint Depression Visibility Wind Speed Wind Dir Waves Ship Positions

Low Land 20

Owner: LOW LAND CONSTRUCTION CO. INC., THIBODAUX, LA. More information available from US FCC via Universal Licensing System and Coast Guard Vessel Documentation Center.

Last reported at 2018-Apr-29 12:43 UTC. Time now 2018-May-22 10:16 UTC.
Position N 29°36' W 090°40'.
Warning: this ship's position is 22 days out of date.

; draft 5 m.

Type: Other ship. MMSI: 367574540.

Date/timePositionNaut miles runAvg speedWind from/ knotsBaromVisibWave heightAir tempDewpointWater temp
2018-Apr-29 12:43N 29°36' W 090°40'0 0.0
2018-Apr-29 12:31N 29°36' W 090°40'0 0.0
2018-Apr-29 11:59N 29°36' W 090°40'0 0.0
2018-Apr-29 11:31N 29°36' W 090°40'0 0.0
2018-Apr-29 11:01N 29°36' W 090°40'0 0.0
2018-Apr-29 10:30N 29°36' W 090°40'0 0.0
2018-Apr-29 10:01N 29°36' W 090°40'0 0.0
2018-Apr-29 09:31N 29°36' W 090°40'0 0.0
2018-Apr-29 09:00N 29°36' W 090°40'0 0.0
2018-Apr-29 08:31N 29°36' W 090°40'0 0.0
2018-Apr-29 07:59N 29°36' W 090°40'0 0.0
2018-Apr-29 07:29N 29°36' W 090°40'0 0.0
2018-Apr-29 06:59N 29°36' W 090°40'0 0.0
2018-Apr-29 06:31N 29°36' W 090°40'0 0.0
2018-Apr-29 06:01N 29°36' W 090°40'0 0.0
2018-Apr-29 05:30N 29°36' W 090°40'0 0.0
2018-Apr-29 05:00N 29°36' W 090°40'0 0.0
2018-Apr-29 04:30N 29°36' W 090°40'0 0.0
2018-Apr-29 04:00N 29°36' W 090°40'0 0.4
2018-Apr-29 03:31N 29°36' W 090°40'0 0.1
2018-Apr-29 02:59N 29°36' W 090°40'0 0.0
2018-Apr-29 02:29N 29°36' W 090°40'0 0.0
2018-Apr-29 02:00N 29°36' W 090°40'0 0.0
2018-Apr-29 01:31N 29°36' W 090°40'2 3.5
2018-Apr-29 01:01N 29°35' W 090°38'2 4.2
2018-Apr-29 00:31N 29°35' W 090°36'2 4.5
2018-Apr-29 00:00N 29°34' W 090°33'2 4.6
2018-Apr-28 23:30N 29°34' W 090°31'5 0.1
2018-Apr-26 22:01N 29°35' W 090°36'3 6.1
2018-Apr-26 21:30N 29°36' W 090°39'0 0.5
2018-Apr-26 21:00N 29°36' W 090°40'0 0.0
2018-Apr-26 20:30N 29°36' W 090°40'0 0.0
2018-Apr-26 19:57N 29°36' W 090°40'0 0.6
2018-Apr-26 19:31N 29°36' W 090°40'0 0.4
2018-Apr-26 18:54N 29°36' W 090°40'0 0.1
2018-Apr-26 18:30N 29°36' W 090°40'2 4.8
2018-Apr-26 18:00N 29°37' W 090°42'3 5.6
2018-Apr-26 17:30N 29°34' W 090°43'0 0.2
2018-Apr-26 16:59N 29°34' W 090°43'2 4.6
2018-Apr-26 16:30N 29°32' W 090°42'3 5.1
2018-Apr-26 16:01N 29°29' W 090°43'3 5.0
2018-Apr-26 15:29N 29°27' W 090°43'2 5.0
2018-Apr-26 15:00N 29°24' W 090°44'4 0.2
2018-Apr-25 17:29N 29°28' W 090°43'3 7.0
2018-Apr-25 17:00N 29°31' W 090°42'3 5.6
2018-Apr-25 16:29N 29°34' W 090°43'2 3.3
2018-Apr-25 16:00N 29°36' W 090°43'2 3.4
2018-Apr-25 15:31N 29°36' W 090°41'1 1.8
2018-Apr-25 15:01N 29°36' W 090°40'0 0.0
2018-Apr-25 14:31N 29°36' W 090°40'0 0.0
2018-Apr-25 14:01N 29°36' W 090°40'0 0.5
2018-Apr-25 13:30N 29°36' W 090°40'0 0.5
2018-Apr-25 13:01N 29°36' W 090°40'0 0.0
2018-Apr-25 12:28N 29°36' W 090°40'0 0.0
2018-Apr-25 11:56N 29°36' W 090°40'0 0.0
2018-Apr-25 11:27N 29°36' W 090°40'0 0.0
2018-Apr-25 10:59N 29°36' W 090°40'0 0.0
2018-Apr-25 10:28N 29°36' W 090°40'0 0.0
2018-Apr-25 09:56N 29°36' W 090°40'0 0.1
2018-Apr-25 09:31N 29°36' W 090°40'2 3.8
2018-Apr-25 08:59N 29°37' W 090°42'2 4.7
2018-Apr-25 08:30N 29°35' W 090°43'1 1.2
2018-Apr-25 08:01N 29°34' W 090°43'1 1.6
2018-Apr-25 07:31N 29°34' W 090°44'0 0.0
2018-Apr-25 07:00N 29°34' W 090°44'0 0.0
2018-Apr-25 06:31N 29°34' W 090°44'0 0.0
2018-Apr-25 06:01N 29°34' W 090°44'0 0.0
2018-Apr-25 05:30N 29°34' W 090°44'0 0.0
2018-Apr-25 05:00N 29°34' W 090°44'0 0.0
2018-Apr-25 04:31N 29°34' W 090°44'0 0.0
2018-Apr-25 04:01N 29°34' W 090°44'0 0.0
2018-Apr-25 03:31N 29°34' W 090°44'0 0.0
2018-Apr-25 03:00N 29°34' W 090°44'0 0.0
2018-Apr-25 02:30N 29°34' W 090°44'0 0.0
2018-Apr-25 02:01N 29°34' W 090°44'0 0.0
2018-Apr-25 01:30N 29°34' W 090°44'0 0.0
2018-Apr-25 01:00N 29°34' W 090°44'0 0.0
2018-Apr-25 00:31N 29°34' W 090°44'0 0.0
2018-Apr-25 00:01N 29°34' W 090°44'0 0.0
2018-Apr-24 23:31N 29°34' W 090°44'0 0.0
2018-Apr-24 23:00N 29°34' W 090°44'0 0.0
2018-Apr-24 22:30N 29°34' W 090°44'0 0.1
2018-Apr-24 22:01N 29°34' W 090°44'0 0.4
2018-Apr-24 21:31N 29°34' W 090°43'1 1.9
2018-Apr-24 21:00N 29°35' W 090°43'1 1.9
2018-Apr-24 20:31N 29°36' W 090°43'1 2.7
2018-Apr-24 20:01N 29°37' W 090°42'1 2.2
2018-Apr-24 19:30N 29°36' W 090°40'1 1.2
2018-Apr-24 19:01N 29°36' W 090°40'0 0.0
2018-Apr-24 18:29N 29°36' W 090°40'0 0.0
2018-Apr-24 17:53N 29°36' W 090°40'0 0.0
2018-Apr-24 17:30N 29°36' W 090°40'0 0.0
2018-Apr-24 16:58N 29°36' W 090°40'0 0.0
2018-Apr-24 16:31N 29°36' W 090°40'0 0.0
2018-Apr-24 15:59N 29°36' W 090°40'0 0.1
2018-Apr-24 15:31N 29°36' W 090°40'0 0.0
2018-Apr-24 15:00N 29°36' W 090°40'0 0.0
2018-Apr-24 14:29N 29°36' W 090°40'0 0.0
2018-Apr-24 14:00N 29°36' W 090°40'0 0.0
2018-Apr-24 13:31N 29°36' W 090°40'0 0.0
2018-Apr-24 13:01N 29°36' W 090°40'0 0.0
2018-Apr-24 12:30N 29°36' W 090°40'0 0.0
2018-Apr-24 12:01N 29°36' W 090°40'0 0.0
2018-Apr-24 11:31N 29°36' W 090°40'0 0.0
2018-Apr-24 11:00N 29°36' W 090°40'0 0.0
2018-Apr-24 10:30N 29°36' W 090°40'0 0.4
2018-Apr-24 10:01N 29°36' W 090°40'0 0.6
2018-Apr-24 09:30N 29°36' W 090°40'0 0.0
2018-Apr-24 09:00N 29°36' W 090°40'0 0.0
2018-Apr-24 08:31N 29°36' W 090°40'0 0.0
2018-Apr-24 07:59N 29°36' W 090°40'0 0.0
2018-Apr-24 07:30N 29°36' W 090°40'0 0.0
2018-Apr-24 07:01N 29°36' W 090°40'0 0.0
2018-Apr-24 06:30N 29°36' W 090°40'0 0.0
2018-Apr-24 05:59N 29°36' W 090°40'0 0.0
2018-Apr-24 05:29N 29°36' W 090°40'0 0.0
2018-Apr-24 05:01N 29°36' W 090°40'0 0.0
2018-Apr-24 04:31N 29°36' W 090°40'0 0.0
2018-Apr-24 04:00N 29°36' W 090°40'0 0.0
2018-Apr-24 03:30N 29°36' W 090°40'0 0.0
2018-Apr-24 02:59N 29°36' W 090°40'0 0.0
2018-Apr-24 02:31N 29°36' W 090°40'0 0.0
2018-Apr-24 02:00N 29°36' W 090°40'0 0.0
2018-Apr-24 01:27N 29°36' W 090°40'0 0.0
2018-Apr-24 00:59N 29°36' W 090°40'0 0.0
2018-Apr-24 00:30N 29°36' W 090°40'0 0.0
2018-Apr-24 00:00N 29°36' W 090°40'0 0.0
2018-Apr-23 23:31N 29°36' W 090°40'0 0.0
2018-Apr-23 23:00N 29°36' W 090°40'0 0.0
2018-Apr-23 22:30N 29°36' W 090°40'0 0.0
2018-Apr-23 21:58N 29°36' W 090°40'0 0.0
2018-Apr-23 21:24N 29°36' W 090°40'0 0.0
2018-Apr-23 21:00N 29°36' W 090°40'0 0.0
2018-Apr-23 20:30N 29°36' W 090°40'0 0.0
2018-Apr-23 20:00N 29°36' W 090°40'0 0.0
2018-Apr-23 19:28N 29°36' W 090°40'0 0.0
2018-Apr-23 18:58N 29°36' W 090°40'0 0.0
2018-Apr-23 18:27N 29°36' W 090°40'0 0.0
2018-Apr-23 18:01N 29°36' W 090°40'0 0.0
2018-Apr-23 17:26N 29°36' W 090°40'0 0.0
2018-Apr-23 16:51N 29°36' W 090°40'0 0.0
2018-Apr-23 16:28N 29°36' W 090°40'0 0.0
2018-Apr-23 15:56N 29°36' W 090°40'0 0.0
2018-Apr-23 15:30N 29°36' W 090°40'0 0.0
2018-Apr-23 15:00N 29°36' W 090°40'0 0.0
2018-Apr-23 14:01N 29°36' W 090°40'0 0.0
2018-Apr-23 13:47N 29°36' W 090°40'0 0.0
2018-Apr-23 13:20N 29°36' W 090°40'0 0.0
2018-Apr-23 12:55N 29°36' W 090°40'0 0.0
2018-Apr-23 12:31N 29°36' W 090°40'0 0.0
2018-Apr-23 12:00N 29°36' W 090°40'0 0.0
2018-Apr-23 11:30N 29°36' W 090°40'0 0.0
2018-Apr-23 11:00N 29°36' W 090°40'0 0.0
2018-Apr-23 10:31N 29°36' W 090°40'0 0.0
2018-Apr-23 10:00N 29°36' W 090°40'0 0.0
2018-Apr-23 09:30N 29°36' W 090°40'0 0.0
2018-Apr-23 09:01N 29°36' W 090°40'0 0.0
2018-Apr-23 08:30N 29°36' W 090°40'0 0.0
2018-Apr-23 08:00N 29°36' W 090°40'0 0.0
2018-Apr-23 07:30N 29°36' W 090°40'0 0.0
2018-Apr-23 07:01N 29°36' W 090°40'0 0.0
2018-Apr-23 06:29N 29°36' W 090°40'0 0.0
2018-Apr-23 06:00N 29°36' W 090°40'0 0.0
2018-Apr-23 05:30N 29°36' W 090°40'0 0.0
2018-Apr-23 05:00N 29°36' W 090°40'0 0.0
2018-Apr-23 04:31N 29°36' W 090°40'0 0.0
2018-Apr-23 04:01N 29°36' W 090°40'0 0.0
2018-Apr-23 03:30N 29°36' W 090°40'0 0.0
2018-Apr-23 03:00N 29°36' W 090°40'0 0.0
2018-Apr-23 02:29N 29°36' W 090°40'0 0.0
2018-Apr-23 02:00N 29°36' W 090°40'0 0.0
2018-Apr-23 01:31N 29°36' W 090°40'0 0.0
2018-Apr-23 01:00N 29°36' W 090°40'0 0.0
2018-Apr-23 00:28N 29°36' W 090°40'0 0.0
2018-Apr-23 00:00N 29°36' W 090°40'0 0.0
2018-Apr-22 23:30N 29°36' W 090°40'0 0.0
2018-Apr-22 23:01N 29°36' W 090°40'0 0.0
2018-Apr-22 22:31N 29°36' W 090°40'0 0.0
2018-Apr-22 22:01N 29°36' W 090°40'0 0.0
2018-Apr-22 21:30N 29°36' W 090°40'0 0.0
2018-Apr-22 21:00N 29°36' W 090°40'0 0.0
2018-Apr-22 20:31N 29°36' W 090°40'0 0.0
2018-Apr-22 20:00N 29°36' W 090°40'0 0.0
2018-Apr-22 19:30N 29°36' W 090°40'0 0.0
2018-Apr-22 19:00N 29°36' W 090°40'0 0.0
2018-Apr-22 18:31N 29°36' W 090°40'0 0.0
2018-Apr-22 18:00N 29°36' W 090°40'0 0.0
2018-Apr-22 17:30N 29°36' W 090°40'0 0.0
2018-Apr-22 17:00N 29°36' W 090°40'0 0.0
2018-Apr-22 16:30N 29°36' W 090°40'0 0.0
2018-Apr-22 16:01N 29°36' W 090°40'0 0.0
2018-Apr-22 15:30N 29°36' W 090°40'0 0.0
2018-Apr-22 15:00N 29°36' W 090°40'0 0.0
2018-Apr-22 14:30N 29°36' W 090°40'0 0.0
2018-Apr-22 13:59N 29°36' W 090°40'0 0.0
2018-Apr-22 13:31N 29°36' W 090°40'0 0.0
2018-Apr-22 13:00N 29°36' W 090°40'0 0.0
2018-Apr-22 12:30N 29°36' W 090°40'0 0.0
2018-Apr-22 12:00N 29°36' W 090°40'0 0.0
2018-Apr-22 11:30N 29°36' W 090°40'0 0.0
2018-Apr-22 11:01N 29°36' W 090°40'0 0.0
2018-Apr-22 10:29N 29°36' W 090°40'0 0.0
2018-Apr-22 10:01N 29°36' W 090°40'0 0.0
2018-Apr-22 09:30N 29°36' W 090°40'0 0.0
2018-Apr-22 09:00N 29°36' W 090°40'0 0.0
2018-Apr-22 08:31N 29°36' W 090°40'0 0.0
2018-Apr-22 08:00N 29°36' W 090°40'0 0.0
2018-Apr-22 07:30N 29°36' W 090°40'0 0.0
2018-Apr-22 07:01N 29°36' W 090°40'0 0.0
2018-Apr-22 06:30N 29°36' W 090°40'0 0.0
2018-Apr-22 06:00N 29°36' W 090°40'0 0.0
2018-Apr-22 05:30N 29°36' W 090°40'0 0.0
2018-Apr-22 05:00N 29°36' W 090°40'0 0.4
2018-Apr-22 04:27N 29°36' W 090°40'0 0.0
2018-Apr-22 04:00N 29°36' W 090°40'0 0.0
2018-Apr-22 03:30N 29°36' W 090°40'0 0.0
2018-Apr-22 03:00N 29°36' W 090°40'0 0.0
2018-Apr-22 02:30N 29°36' W 090°40'0 0.0
2018-Apr-22 02:00N 29°36' W 090°40'1 2.1
2018-Apr-22 01:30N 29°35' W 090°39'3 5.2
2018-Apr-22 01:00N 29°35' W 090°36'3 5.1
2018-Apr-22 00:30N 29°34' W 090°33'3 5.8
2018-Apr-22 00:00N 29°34' W 090°30'  

Dump ship's entire track history